sensor_id;sensor_type;location;lat;lon;timestamp;P1;durP1;ratioP1;P2;durP2;ratioP2
64686;SDS011;51113;53.646;-113.674;2022-08-01T00:01:32;6.57;;;4.00;;
64686;SDS011;51113;53.646;-113.674;2022-08-01T00:04:01;14.13;;;5.75;;
64686;SDS011;51113;53.646;-113.674;2022-08-01T00:06:30;9.85;;;4.63;;
64686;SDS011;51113;53.646;-113.674;2022-08-01T00:08:59;8.07;;;3.95;;
64686;SDS011;51113;53.646;-113.674;2022-08-01T00:11:28;6.00;;;3.63;;
64686;SDS011;51113;53.646;-113.674;2022-08-01T00:13:56;5.75;;;3.70;;
64686;SDS011;51113;53.646;-113.674;2022-08-01T00:16:25;7.35;;;3.33;;
64686;SDS011;51113;53.646;-113.674;2022-08-01T00:18:54;6.30;;;3.58;;
64686;SDS011;51113;53.646;-113.674;2022-08-01T00:21:23;6.05;;;3.65;;
64686;SDS011;51113;53.646;-113.674;2022-08-01T00:23:51;7.00;;;3.55;;
64686;SDS011;51113;53.646;-113.674;2022-08-01T00:26:20;4.20;;;3.25;;
64686;SDS011;51113;53.646;-113.674;2022-08-01T00:28:49;5.60;;;3.38;;
64686;SDS011;51113;53.646;-113.674;2022-08-01T00:31:18;6.82;;;3.70;;
64686;SDS011;51113;53.646;-113.674;2022-08-01T00:33:46;6.60;;;3.78;;
64686;SDS011;51113;53.646;-113.674;2022-08-01T00:36:15;5.80;;;3.67;;
64686;SDS011;51113;53.646;-113.674;2022-08-01T00:38:44;5.82;;;3.58;;
64686;SDS011;51113;53.646;-113.674;2022-08-01T00:41:12;8.32;;;3.30;;
64686;SDS011;51113;53.646;-113.674;2022-08-01T00:43:41;6.38;;;3.75;;
64686;SDS011;51113;53.646;-113.674;2022-08-01T00:46:10;11.43;;;4.95;;
64686;SDS011;51113;53.646;-113.674;2022-08-01T00:48:38;6.28;;;3.45;;
64686;SDS011;51113;53.646;-113.674;2022-08-01T00:51:07;8.25;;;4.13;;
64686;SDS011;51113;53.646;-113.674;2022-08-01T00:53:36;7.20;;;4.10;;
64686;SDS011;51113;53.646;-113.674;2022-08-01T00:56:17;6.45;;;3.35;;
64686;SDS011;51113;53.646;-113.674;2022-08-01T00:58:48;8.23;;;3.70;;
64686;SDS011;51113;53.646;-113.674;2022-08-01T01:01:16;7.00;;;3.60;;
64686;SDS011;51113;53.646;-113.674;2022-08-01T01:03:51;7.13;;;3.90;;
64686;SDS011;51113;53.646;-113.674;2022-08-01T01:06:36;6.82;;;3.90;;
64686;SDS011;51113;53.646;-113.674;2022-08-01T01:09:21;7.32;;;4.60;;
64686;SDS011;51113;53.646;-113.674;2022-08-01T01:14:47;14.95;;;4.00;;
64686;SDS011;51113;53.646;-113.674;2022-08-01T01:17:27;8.25;;;4.40;;
64686;SDS011;51113;53.646;-113.674;2022-08-01T01:20:17;5.85;;;3.75;;
64686;SDS011;51113;53.646;-113.674;2022-08-01T01:31:36;7.88;;;4.25;;
64686;SDS011;51113;53.646;-113.674;2022-08-01T01:34:23;8.43;;;4.72;;
64686;SDS011;51113;53.646;-113.674;2022-08-01T01:36:56;10.15;;;5.63;;
64686;SDS011;51113;53.646;-113.674;2022-08-01T01:39:28;7.43;;;4.97;;
64686;SDS011;51113;53.646;-113.674;2022-08-01T01:41:58;9.77;;;5.30;;
64686;SDS011;51113;53.646;-113.674;2022-08-01T01:44:30;7.38;;;4.28;;
64686;SDS011;51113;53.646;-113.674;2022-08-01T01:46:59;8.30;;;4.35;;
64686;SDS011;51113;53.646;-113.674;2022-08-01T01:49:29;10.73;;;4.60;;
64686;SDS011;51113;53.646;-113.674;2022-08-01T01:52:00;7.95;;;4.97;;
64686;SDS011;51113;53.646;-113.674;2022-08-01T01:54:33;7.53;;;5.05;;
64686;SDS011;51113;53.646;-113.674;2022-08-01T01:57:04;10.10;;;5.22;;
64686;SDS011;51113;53.646;-113.674;2022-08-01T01:59:35;9.40;;;5.75;;
64686;SDS011;51113;53.646;-113.674;2022-08-01T02:02:06;12.77;;;6.40;;
64686;SDS011;51113;53.646;-113.674;2022-08-01T02:04:39;11.30;;;7.20;;
64686;SDS011;51113;53.646;-113.674;2022-08-01T02:07:13;12.85;;;7.53;;
64686;SDS011;51113;53.646;-113.674;2022-08-01T02:09:45;11.73;;;6.90;;
64686;SDS011;51113;53.646;-113.674;2022-08-01T02:12:15;10.15;;;6.88;;
64686;SDS011;51113;53.646;-113.674;2022-08-01T02:14:45;9.63;;;7.13;;
64686;SDS011;51113;53.646;-113.674;2022-08-01T02:17:17;12.20;;;6.45;;
64686;SDS011;51113;53.646;-113.674;2022-08-01T02:19:47;8.93;;;5.70;;
64686;SDS011;51113;53.646;-113.674;2022-08-01T02:22:18;8.82;;;4.90;;
64686;SDS011;51113;53.646;-113.674;2022-08-01T02:25:29;7.95;;;5.18;;
64686;SDS011;51113;53.646;-113.674;2022-08-01T02:30:31;11.38;;;5.38;;
64686;SDS011;51113;53.646;-113.674;2022-08-01T02:33:04;11.68;;;4.63;;
64686;SDS011;51113;53.646;-113.674;2022-08-01T02:35:41;7.68;;;4.72;;
64686;SDS011;51113;53.646;-113.674;2022-08-01T02:38:35;9.43;;;5.32;;
64686;SDS011;51113;53.646;-113.674;2022-08-01T02:41:08;10.43;;;4.97;;
64686;SDS011;51113;53.646;-113.674;2022-08-01T02:43:43;9.60;;;5.38;;
64686;SDS011;51113;53.646;-113.674;2022-08-01T02:46:23;7.72;;;4.90;;
64686;SDS011;51113;53.646;-113.674;2022-08-01T02:48:58;9.40;;;5.22;;
64686;SDS011;51113;53.646;-113.674;2022-08-01T02:51:30;15.40;;;4.75;;
64686;SDS011;51113;53.646;-113.674;2022-08-01T02:54:01;10.30;;;4.90;;
64686;SDS011;51113;53.646;-113.674;2022-08-01T02:56:31;8.43;;;5.10;;
64686;SDS011;51113;53.646;-113.674;2022-08-01T02:59:05;9.25;;;5.32;;
64686;SDS011;51113;53.646;-113.674;2022-08-01T03:01:39;10.80;;;5.05;;
64686;SDS011;51113;53.646;-113.674;2022-08-01T03:04:13;7.90;;;5.10;;
64686;SDS011;51113;53.646;-113.674;2022-08-01T03:06:45;9.20;;;4.80;;
64686;SDS011;51113;53.646;-113.674;2022-08-01T03:09:16;8.02;;;5.07;;
64686;SDS011;51113;53.646;-113.674;2022-08-01T03:11:46;9.52;;;4.80;;
64686;SDS011;51113;53.646;-113.674;2022-08-01T03:14:17;11.05;;;5.05;;
64686;SDS011;51113;53.646;-113.674;2022-08-01T03:16:51;9.63;;;5.47;;
64686;SDS011;51113;53.646;-113.674;2022-08-01T03:19:24;9.10;;;5.05;;
64686;SDS011;51113;53.646;-113.674;2022-08-01T03:21:55;13.43;;;5.22;;
64686;SDS011;51113;53.646;-113.674;2022-08-01T03:24:26;9.57;;;5.75;;
64686;SDS011;51113;53.646;-113.674;2022-08-01T03:26:56;11.65;;;5.47;;
64686;SDS011;51113;53.646;-113.674;2022-08-01T03:29:26;8.15;;;5.15;;
64686;SDS011;51113;53.646;-113.674;2022-08-01T03:31:57;8.55;;;5.22;;
64686;SDS011;51113;53.646;-113.674;2022-08-01T03:34:29;9.10;;;5.30;;
64686;SDS011;51113;53.646;-113.674;2022-08-01T03:39:50;16.05;;;6.28;;
64686;SDS011;51113;53.646;-113.674;2022-08-01T03:42:36;9.27;;;5.53;;
64686;SDS011;51113;53.646;-113.674;2022-08-01T03:45:15;7.57;;;5.18;;
64686;SDS011;51113;53.646;-113.674;2022-08-01T03:47:50;9.43;;;5.13;;
64686;SDS011;51113;53.646;-113.674;2022-08-01T03:50:24;10.35;;;5.30;;
64686;SDS011;51113;53.646;-113.674;2022-08-01T03:52:54;11.05;;;6.05;;
64686;SDS011;51113;53.646;-113.674;2022-08-01T03:55:27;10.63;;;5.50;;
64686;SDS011;51113;53.646;-113.674;2022-08-01T03:57:58;12.48;;;6.07;;
64686;SDS011;51113;53.646;-113.674;2022-08-01T04:00:33;10.05;;;5.55;;
64686;SDS011;51113;53.646;-113.674;2022-08-01T04:03:08;9.85;;;5.63;;
64686;SDS011;51113;53.646;-113.674;2022-08-01T04:05:40;8.93;;;5.82;;
64686;SDS011;51113;53.646;-113.674;2022-08-01T04:08:10;9.77;;;5.20;;
64686;SDS011;51113;53.646;-113.674;2022-08-01T04:10:38;8.15;;;5.32;;
64686;SDS011;51113;53.646;-113.674;2022-08-01T04:13:07;13.68;;;5.50;;
64686;SDS011;51113;53.646;-113.674;2022-08-01T04:15:35;9.93;;;6.10;;
64686;SDS011;51113;53.646;-113.674;2022-08-01T04:18:03;10.20;;;5.10;;
64686;SDS011;51113;53.646;-113.674;2022-08-01T04:20:34;9.57;;;4.85;;
64686;SDS011;51113;53.646;-113.674;2022-08-01T04:23:03;10.30;;;4.95;;
64686;SDS011;51113;53.646;-113.674;2022-08-01T04:25:34;9.70;;;5.40;;
64686;SDS011;51113;53.646;-113.674;2022-08-01T04:28:07;11.55;;;5.70;;
64686;SDS011;51113;53.646;-113.674;2022-08-01T04:30:38;17.52;;;6.18;;
64686;SDS011;51113;53.646;-113.674;2022-08-01T04:33:08;8.07;;;4.75;;
64686;SDS011;51113;53.646;-113.674;2022-08-01T04:35:39;8.57;;;5.00;;
64686;SDS011;51113;53.646;-113.674;2022-08-01T04:38:30;11.77;;;5.25;;
64686;SDS011;51113;53.646;-113.674;2022-08-01T04:41:02;10.48;;;5.38;;
64686;SDS011;51113;53.646;-113.674;2022-08-01T04:43:38;11.70;;;5.45;;
64686;SDS011;51113;53.646;-113.674;2022-08-01T04:46:10;8.70;;;5.32;;
64686;SDS011;51113;53.646;-113.674;2022-08-01T04:48:39;12.98;;;5.68;;
64686;SDS011;51113;53.646;-113.674;2022-08-01T04:51:15;10.40;;;6.03;;
64686;SDS011;51113;53.646;-113.674;2022-08-01T04:53:49;9.32;;;5.55;;
64686;SDS011;51113;53.646;-113.674;2022-08-01T04:56:19;8.77;;;5.50;;
64686;SDS011;51113;53.646;-113.674;2022-08-01T04:58:48;10.05;;;5.43;;
64686;SDS011;51113;53.646;-113.674;2022-08-01T05:01:48;10.00;;;5.47;;
64686;SDS011;51113;53.646;-113.674;2022-08-01T05:04:18;14.75;;;5.63;;
64686;SDS011;51113;53.646;-113.674;2022-08-01T05:06:46;15.00;;;5.50;;
64686;SDS011;51113;53.646;-113.674;2022-08-01T05:09:15;9.73;;;5.95;;
64686;SDS011;51113;53.646;-113.674;2022-08-01T05:11:43;11.85;;;5.65;;
64686;SDS011;51113;53.646;-113.674;2022-08-01T05:14:12;9.65;;;5.60;;
64686;SDS011;51113;53.646;-113.674;2022-08-01T05:16:40;10.43;;;5.60;;
64686;SDS011;51113;53.646;-113.674;2022-08-01T05:19:09;10.15;;;6.47;;
64686;SDS011;51113;53.646;-113.674;2022-08-01T05:21:38;8.80;;;5.55;;
64686;SDS011;51113;53.646;-113.674;2022-08-01T05:24:06;7.97;;;5.40;;
64686;SDS011;51113;53.646;-113.674;2022-08-01T05:26:35;9.90;;;5.75;;
64686;SDS011;51113;53.646;-113.674;2022-08-01T05:29:04;11.45;;;6.03;;
64686;SDS011;51113;53.646;-113.674;2022-08-01T05:31:34;12.60;;;6.03;;
64686;SDS011;51113;53.646;-113.674;2022-08-01T05:34:03;10.75;;;5.40;;
64686;SDS011;51113;53.646;-113.674;2022-08-01T05:36:40;13.30;;;5.95;;
64686;SDS011;51113;53.646;-113.674;2022-08-01T05:39:09;11.25;;;5.78;;
64686;SDS011;51113;53.646;-113.674;2022-08-01T05:41:38;11.65;;;6.15;;
64686;SDS011;51113;53.646;-113.674;2022-08-01T05:44:08;12.32;;;5.97;;
64686;SDS011;51113;53.646;-113.674;2022-08-01T05:46:37;11.52;;;5.72;;
64686;SDS011;51113;53.646;-113.674;2022-08-01T05:49:05;13.43;;;7.13;;
64686;SDS011;51113;53.646;-113.674;2022-08-01T05:51:34;8.93;;;5.28;;
64686;SDS011;51113;53.646;-113.674;2022-08-01T05:54:03;10.60;;;5.93;;
64686;SDS011;51113;53.646;-113.674;2022-08-01T05:56:31;14.43;;;5.95;;
64686;SDS011;51113;53.646;-113.674;2022-08-01T05:58:59;17.15;;;6.20;;
64686;SDS011;51113;53.646;-113.674;2022-08-01T06:01:28;8.80;;;5.93;;
64686;SDS011;51113;53.646;-113.674;2022-08-01T06:03:57;8.85;;;5.63;;
64686;SDS011;51113;53.646;-113.674;2022-08-01T06:06:25;11.75;;;6.18;;
64686;SDS011;51113;53.646;-113.674;2022-08-01T06:08:54;14.05;;;6.18;;
64686;SDS011;51113;53.646;-113.674;2022-08-01T06:11:23;12.23;;;6.18;;
64686;SDS011;51113;53.646;-113.674;2022-08-01T06:13:52;9.80;;;5.43;;
64686;SDS011;51113;53.646;-113.674;2022-08-01T06:16:21;10.13;;;6.20;;
64686;SDS011;51113;53.646;-113.674;2022-08-01T06:18:49;11.38;;;5.90;;
64686;SDS011;51113;53.646;-113.674;2022-08-01T06:21:22;13.05;;;6.38;;
64686;SDS011;51113;53.646;-113.674;2022-08-01T06:23:51;14.98;;;6.28;;
64686;SDS011;51113;53.646;-113.674;2022-08-01T06:26:19;11.60;;;6.32;;
64686;SDS011;51113;53.646;-113.674;2022-08-01T06:28:48;10.15;;;6.25;;
64686;SDS011;51113;53.646;-113.674;2022-08-01T06:31:17;10.25;;;6.13;;
64686;SDS011;51113;53.646;-113.674;2022-08-01T06:33:46;11.07;;;5.57;;
64686;SDS011;51113;53.646;-113.674;2022-08-01T06:36:15;9.93;;;5.45;;
64686;SDS011;51113;53.646;-113.674;2022-08-01T06:38:43;11.15;;;5.93;;
64686;SDS011;51113;53.646;-113.674;2022-08-01T06:41:12;17.33;;;6.07;;
64686;SDS011;51113;53.646;-113.674;2022-08-01T06:43:41;7.88;;;5.47;;
64686;SDS011;51113;53.646;-113.674;2022-08-01T06:46:09;10.45;;;5.93;;
64686;SDS011;51113;53.646;-113.674;2022-08-01T06:48:38;14.07;;;5.90;;
64686;SDS011;51113;53.646;-113.674;2022-08-01T06:51:07;12.50;;;6.03;;
64686;SDS011;51113;53.646;-113.674;2022-08-01T06:53:36;11.75;;;6.15;;
64686;SDS011;51113;53.646;-113.674;2022-08-01T06:56:06;13.55;;;6.53;;
64686;SDS011;51113;53.646;-113.674;2022-08-01T06:58:38;11.73;;;6.20;;
64686;SDS011;51113;53.646;-113.674;2022-08-01T07:01:07;12.77;;;6.20;;
64686;SDS011;51113;53.646;-113.674;2022-08-01T07:03:36;11.57;;;6.53;;
64686;SDS011;51113;53.646;-113.674;2022-08-01T07:06:23;15.35;;;6.90;;
64686;SDS011;51113;53.646;-113.674;2022-08-01T07:11:21;11.30;;;6.70;;
64686;SDS011;51113;53.646;-113.674;2022-08-01T07:13:51;13.38;;;7.00;;
64686;SDS011;51113;53.646;-113.674;2022-08-01T07:16:20;13.40;;;7.18;;
64686;SDS011;51113;53.646;-113.674;2022-08-01T07:18:49;15.10;;;7.50;;
64686;SDS011;51113;53.646;-113.674;2022-08-01T07:21:18;11.55;;;7.30;;
64686;SDS011;51113;53.646;-113.674;2022-08-01T07:24:07;13.98;;;7.32;;
64686;SDS011;51113;53.646;-113.674;2022-08-01T07:26:42;16.60;;;7.63;;
64686;SDS011;51113;53.646;-113.674;2022-08-01T07:29:28;11.82;;;7.07;;
64686;SDS011;51113;53.646;-113.674;2022-08-01T07:31:57;19.13;;;7.82;;
64686;SDS011;51113;53.646;-113.674;2022-08-01T07:34:26;11.75;;;6.97;;
64686;SDS011;51113;53.646;-113.674;2022-08-01T07:36:54;12.18;;;7.55;;
64686;SDS011;51113;53.646;-113.674;2022-08-01T07:39:23;14.68;;;6.90;;
64686;SDS011;51113;53.646;-113.674;2022-08-01T07:41:52;14.27;;;7.35;;
64686;SDS011;51113;53.646;-113.674;2022-08-01T07:44:34;12.93;;;7.45;;
64686;SDS011;51113;53.646;-113.674;2022-08-01T07:47:04;14.45;;;7.03;;
64686;SDS011;51113;53.646;-113.674;2022-08-01T07:49:33;13.70;;;7.45;;
64686;SDS011;51113;53.646;-113.674;2022-08-01T07:52:05;11.73;;;7.82;;
64686;SDS011;51113;53.646;-113.674;2022-08-01T07:54:35;12.48;;;7.18;;
64686;SDS011;51113;53.646;-113.674;2022-08-01T07:57:04;12.98;;;7.75;;
64686;SDS011;51113;53.646;-113.674;2022-08-01T07:59:33;13.25;;;7.68;;
64686;SDS011;51113;53.646;-113.674;2022-08-01T08:02:02;15.52;;;7.45;;
64686;SDS011;51113;53.646;-113.674;2022-08-01T08:04:31;14.43;;;7.78;;
64686;SDS011;51113;53.646;-113.674;2022-08-01T08:06:59;12.10;;;7.35;;
64686;SDS011;51113;53.646;-113.674;2022-08-01T08:09:28;19.60;;;8.80;;
64686;SDS011;51113;53.646;-113.674;2022-08-01T08:12:03;16.05;;;8.98;;
64686;SDS011;51113;53.646;-113.674;2022-08-01T08:14:33;16.25;;;8.30;;
64686;SDS011;51113;53.646;-113.674;2022-08-01T08:17:02;14.07;;;8.80;;
64686;SDS011;51113;53.646;-113.674;2022-08-01T08:19:30;14.98;;;8.02;;
64686;SDS011;51113;53.646;-113.674;2022-08-01T08:22:04;13.43;;;7.78;;
64686;SDS011;51113;53.646;-113.674;2022-08-01T08:24:35;15.18;;;7.82;;
64686;SDS011;51113;53.646;-113.674;2022-08-01T08:27:12;13.68;;;7.32;;
64686;SDS011;51113;53.646;-113.674;2022-08-01T08:29:41;13.07;;;7.93;;
64686;SDS011;51113;53.646;-113.674;2022-08-01T08:32:10;14.38;;;7.30;;
64686;SDS011;51113;53.646;-113.674;2022-08-01T08:34:39;14.15;;;6.90;;
64686;SDS011;51113;53.646;-113.674;2022-08-01T08:37:08;11.73;;;6.70;;
64686;SDS011;51113;53.646;-113.674;2022-08-01T08:39:37;13.85;;;6.65;;
64686;SDS011;51113;53.646;-113.674;2022-08-01T08:42:07;15.23;;;7.20;;
64686;SDS011;51113;53.646;-113.674;2022-08-01T08:44:39;12.18;;;7.25;;
64686;SDS011;51113;53.646;-113.674;2022-08-01T08:47:11;10.68;;;6.57;;
64686;SDS011;51113;53.646;-113.674;2022-08-01T08:49:46;13.77;;;7.70;;
64686;SDS011;51113;53.646;-113.674;2022-08-01T08:52:18;13.00;;;6.70;;
64686;SDS011;51113;53.646;-113.674;2022-08-01T08:54:49;15.38;;;7.32;;
64686;SDS011;51113;53.646;-113.674;2022-08-01T08:57:19;14.75;;;6.95;;
64686;SDS011;51113;53.646;-113.674;2022-08-01T08:59:49;11.93;;;6.68;;
64686;SDS011;51113;53.646;-113.674;2022-08-01T09:02:20;12.45;;;7.28;;
64686;SDS011;51113;53.646;-113.674;2022-08-01T09:04:49;13.32;;;6.82;;
64686;SDS011;51113;53.646;-113.674;2022-08-01T09:07:18;12.20;;;7.10;;
64686;SDS011;51113;53.646;-113.674;2022-08-01T09:09:47;11.48;;;7.15;;
64686;SDS011;51113;53.646;-113.674;2022-08-01T09:12:17;14.23;;;6.93;;
64686;SDS011;51113;53.646;-113.674;2022-08-01T09:14:47;11.77;;;6.30;;
64686;SDS011;51113;53.646;-113.674;2022-08-01T09:17:17;13.88;;;7.05;;
64686;SDS011;51113;53.646;-113.674;2022-08-01T09:19:48;9.35;;;5.88;;
64686;SDS011;51113;53.646;-113.674;2022-08-01T09:22:23;12.80;;;6.25;;
64686;SDS011;51113;53.646;-113.674;2022-08-01T09:27:34;9.63;;;5.57;;
64686;SDS011;51113;53.646;-113.674;2022-08-01T09:30:12;8.73;;;5.57;;
64686;SDS011;51113;53.646;-113.674;2022-08-01T09:35:28;10.93;;;5.78;;
64686;SDS011;51113;53.646;-113.674;2022-08-01T09:40:46;11.10;;;6.10;;
64686;SDS011;51113;53.646;-113.674;2022-08-01T09:43:19;13.27;;;7.05;;
64686;SDS011;51113;53.646;-113.674;2022-08-01T09:45:49;11.05;;;6.68;;
64686;SDS011;51113;53.646;-113.674;2022-08-01T09:48:21;10.80;;;6.32;;
64686;SDS011;51113;53.646;-113.674;2022-08-01T09:50:54;12.23;;;7.30;;
64686;SDS011;51113;53.646;-113.674;2022-08-01T09:53:41;13.48;;;7.35;;
64686;SDS011;51113;53.646;-113.674;2022-08-01T09:56:17;13.07;;;7.10;;
64686;SDS011;51113;53.646;-113.674;2022-08-01T09:58:50;12.63;;;7.00;;
64686;SDS011;51113;53.646;-113.674;2022-08-01T10:01:26;11.25;;;6.68;;
64686;SDS011;51113;53.646;-113.674;2022-08-01T10:04:08;13.02;;;7.25;;
64686;SDS011;51113;53.646;-113.674;2022-08-01T10:06:43;12.43;;;6.43;;
64686;SDS011;51113;53.646;-113.674;2022-08-01T10:09:25;11.27;;;6.57;;
64686;SDS011;51113;53.646;-113.674;2022-08-01T10:12:06;12.05;;;6.80;;
64686;SDS011;51113;53.646;-113.674;2022-08-01T10:14:42;12.05;;;6.63;;
64686;SDS011;51113;53.646;-113.674;2022-08-01T10:17:19;14.00;;;6.90;;
64686;SDS011;51113;53.646;-113.674;2022-08-01T10:19:48;12.75;;;6.72;;
64686;SDS011;51113;53.646;-113.674;2022-08-01T10:22:19;18.83;;;6.95;;
64686;SDS011;51113;53.646;-113.674;2022-08-01T10:24:53;12.40;;;7.10;;
64686;SDS011;51113;53.646;-113.674;2022-08-01T10:30:04;12.35;;;6.78;;
64686;SDS011;51113;53.646;-113.674;2022-08-01T10:32:49;15.10;;;7.20;;
64686;SDS011;51113;53.646;-113.674;2022-08-01T10:35:20;12.40;;;6.50;;
64686;SDS011;51113;53.646;-113.674;2022-08-01T10:38:09;10.43;;;6.60;;
64686;SDS011;51113;53.646;-113.674;2022-08-01T10:40:40;13.90;;;6.85;;
64686;SDS011;51113;53.646;-113.674;2022-08-01T10:43:12;11.82;;;7.55;;
64686;SDS011;51113;53.646;-113.674;2022-08-01T10:45:47;11.88;;;6.97;;
64686;SDS011;51113;53.646;-113.674;2022-08-01T10:51:01;14.25;;;7.40;;
64686;SDS011;51113;53.646;-113.674;2022-08-01T10:53:51;15.43;;;7.20;;
64686;SDS011;51113;53.646;-113.674;2022-08-01T10:56:22;12.05;;;6.60;;
64686;SDS011;51113;53.646;-113.674;2022-08-01T10:59:14;12.60;;;6.82;;
64686;SDS011;51113;53.646;-113.674;2022-08-01T11:02:07;12.57;;;6.70;;
64686;SDS011;51113;53.646;-113.674;2022-08-01T11:05:00;14.60;;;8.30;;
64686;SDS011;51113;53.646;-113.674;2022-08-01T11:07:43;14.77;;;6.88;;
64686;SDS011;51113;53.646;-113.674;2022-08-01T11:13:00;12.55;;;6.57;;
64686;SDS011;51113;53.646;-113.674;2022-08-01T11:15:31;13.70;;;6.95;;
64686;SDS011;51113;53.646;-113.674;2022-08-01T11:18:00;14.48;;;7.38;;
64686;SDS011;51113;53.646;-113.674;2022-08-01T11:20:34;13.95;;;7.80;;
64686;SDS011;51113;53.646;-113.674;2022-08-01T11:28:33;14.88;;;7.30;;
64686;SDS011;51113;53.646;-113.674;2022-08-01T11:38:48;29.80;;;9.38;;
64686;SDS011;51113;53.646;-113.674;2022-08-01T11:44:07;23.27;;;8.77;;
64686;SDS011;51113;53.646;-113.674;2022-08-01T11:46:46;20.58;;;8.13;;
64686;SDS011;51113;53.646;-113.674;2022-08-01T11:54:35;17.55;;;7.75;;
64686;SDS011;51113;53.646;-113.674;2022-08-01T11:57:09;16.75;;;8.50;;
64686;SDS011;51113;53.646;-113.674;2022-08-01T11:59:43;19.73;;;8.15;;
64686;SDS011;51113;53.646;-113.674;2022-08-01T12:02:32;13.20;;;7.15;;
64686;SDS011;51113;53.646;-113.674;2022-08-01T12:07:38;16.13;;;6.82;;
64686;SDS011;51113;53.646;-113.674;2022-08-01T12:10:10;19.75;;;8.85;;
64686;SDS011;51113;53.646;-113.674;2022-08-01T12:15:14;16.35;;;6.90;;
64686;SDS011;51113;53.646;-113.674;2022-08-01T12:17:48;16.83;;;7.22;;
64686;SDS011;51113;53.646;-113.674;2022-08-01T12:20:28;14.40;;;7.30;;
64686;SDS011;51113;53.646;-113.674;2022-08-01T12:23:04;21.92;;;7.25;;
64686;SDS011;51113;53.646;-113.674;2022-08-01T12:25:38;11.50;;;6.80;;
64686;SDS011;51113;53.646;-113.674;2022-08-01T12:28:07;11.45;;;6.25;;
64686;SDS011;51113;53.646;-113.674;2022-08-01T12:30:37;11.35;;;6.70;;
64686;SDS011;51113;53.646;-113.674;2022-08-01T12:33:07;12.25;;;6.35;;
64686;SDS011;51113;53.646;-113.674;2022-08-01T12:35:38;17.88;;;7.28;;
64686;SDS011;51113;53.646;-113.674;2022-08-01T12:38:20;15.52;;;6.50;;
64686;SDS011;51113;53.646;-113.674;2022-08-01T12:40:54;15.15;;;6.05;;
64686;SDS011;51113;53.646;-113.674;2022-08-01T12:43:23;14.93;;;6.97;;
64686;SDS011;51113;53.646;-113.674;2022-08-01T12:45:55;15.25;;;6.65;;
64686;SDS011;51113;53.646;-113.674;2022-08-01T12:48:26;12.27;;;6.20;;
64686;SDS011;51113;53.646;-113.674;2022-08-01T12:50:58;13.05;;;6.78;;
64686;SDS011;51113;53.646;-113.674;2022-08-01T12:53:34;11.88;;;6.68;;
64686;SDS011;51113;53.646;-113.674;2022-08-01T12:56:07;11.50;;;7.07;;
64686;SDS011;51113;53.646;-113.674;2022-08-01T12:58:38;10.70;;;6.50;;
64686;SDS011;51113;53.646;-113.674;2022-08-01T13:01:10;14.10;;;6.60;;
64686;SDS011;51113;53.646;-113.674;2022-08-01T13:03:40;16.02;;;6.28;;
64686;SDS011;51113;53.646;-113.674;2022-08-01T13:06:24;17.88;;;8.35;;
64686;SDS011;51113;53.646;-113.674;2022-08-01T13:09:07;15.18;;;7.20;;
64686;SDS011;51113;53.646;-113.674;2022-08-01T13:11:38;16.33;;;6.80;;
64686;SDS011;51113;53.646;-113.674;2022-08-01T13:14:30;11.35;;;6.63;;
64686;SDS011;51113;53.646;-113.674;2022-08-01T13:16:59;12.18;;;6.65;;
64686;SDS011;51113;53.646;-113.674;2022-08-01T13:19:43;11.10;;;6.25;;
64686;SDS011;51113;53.646;-113.674;2022-08-01T13:22:14;13.43;;;6.07;;
64686;SDS011;51113;53.646;-113.674;2022-08-01T13:24:43;13.20;;;6.45;;
64686;SDS011;51113;53.646;-113.674;2022-08-01T13:27:19;11.05;;;6.13;;
64686;SDS011;51113;53.646;-113.674;2022-08-01T13:29:51;15.65;;;6.45;;
64686;SDS011;51113;53.646;-113.674;2022-08-01T13:32:21;10.73;;;6.10;;
64686;SDS011;51113;53.646;-113.674;2022-08-01T13:35:01;8.95;;;6.15;;
64686;SDS011;51113;53.646;-113.674;2022-08-01T13:37:31;12.20;;;6.95;;
64686;SDS011;51113;53.646;-113.674;2022-08-01T13:40:03;12.50;;;6.45;;
64686;SDS011;51113;53.646;-113.674;2022-08-01T13:42:32;12.45;;;6.47;;
64686;SDS011;51113;53.646;-113.674;2022-08-01T13:47:41;14.98;;;6.40;;
64686;SDS011;51113;53.646;-113.674;2022-08-01T13:50:30;12.75;;;7.05;;
64686;SDS011;51113;53.646;-113.674;2022-08-01T13:52:59;12.20;;;6.30;;
64686;SDS011;51113;53.646;-113.674;2022-08-01T13:55:28;14.05;;;7.00;;
64686;SDS011;51113;53.646;-113.674;2022-08-01T13:58:01;11.40;;;6.60;;
64686;SDS011;51113;53.646;-113.674;2022-08-01T14:00:30;13.40;;;5.93;;
64686;SDS011;51113;53.646;-113.674;2022-08-01T14:02:59;10.90;;;6.07;;
64686;SDS011;51113;53.646;-113.674;2022-08-01T14:05:28;14.15;;;6.28;;
64686;SDS011;51113;53.646;-113.674;2022-08-01T14:07:57;9.95;;;6.28;;
64686;SDS011;51113;53.646;-113.674;2022-08-01T14:10:26;9.60;;;6.07;;
64686;SDS011;51113;53.646;-113.674;2022-08-01T14:12:56;9.73;;;6.50;;
64686;SDS011;51113;53.646;-113.674;2022-08-01T14:15:27;11.15;;;6.20;;
64686;SDS011;51113;53.646;-113.674;2022-08-01T14:18:05;15.18;;;6.05;;
64686;SDS011;51113;53.646;-113.674;2022-08-01T14:20:36;16.10;;;6.55;;
64686;SDS011;51113;53.646;-113.674;2022-08-01T14:23:05;10.68;;;6.20;;
64686;SDS011;51113;53.646;-113.674;2022-08-01T14:25:38;9.10;;;6.00;;
64686;SDS011;51113;53.646;-113.674;2022-08-01T14:28:28;11.55;;;6.68;;
64686;SDS011;51113;53.646;-113.674;2022-08-01T14:30:58;13.35;;;6.43;;
64686;SDS011;51113;53.646;-113.674;2022-08-01T14:33:27;12.82;;;6.00;;
64686;SDS011;51113;53.646;-113.674;2022-08-01T14:35:56;16.67;;;6.75;;
64686;SDS011;51113;53.646;-113.674;2022-08-01T14:38:44;13.00;;;7.45;;
64686;SDS011;51113;53.646;-113.674;2022-08-01T14:41:14;11.80;;;6.93;;
64686;SDS011;51113;53.646;-113.674;2022-08-01T14:43:43;13.25;;;7.00;;
64686;SDS011;51113;53.646;-113.674;2022-08-01T14:46:12;10.68;;;6.70;;
64686;SDS011;51113;53.646;-113.674;2022-08-01T14:48:41;14.93;;;6.80;;
64686;SDS011;51113;53.646;-113.674;2022-08-01T14:51:10;15.90;;;7.72;;
64686;SDS011;51113;53.646;-113.674;2022-08-01T14:53:38;12.00;;;6.97;;
64686;SDS011;51113;53.646;-113.674;2022-08-01T14:56:16;11.85;;;7.43;;
64686;SDS011;51113;53.646;-113.674;2022-08-01T14:58:45;10.68;;;7.55;;
64686;SDS011;51113;53.646;-113.674;2022-08-01T15:01:14;13.15;;;7.88;;
64686;SDS011;51113;53.646;-113.674;2022-08-01T15:03:42;11.13;;;7.03;;
64686;SDS011;51113;53.646;-113.674;2022-08-01T15:06:11;14.93;;;7.25;;
64686;SDS011;51113;53.646;-113.674;2022-08-01T15:08:40;12.38;;;7.10;;
64686;SDS011;51113;53.646;-113.674;2022-08-01T15:11:09;14.15;;;8.00;;
64686;SDS011;51113;53.646;-113.674;2022-08-01T15:13:38;11.73;;;7.15;;
64686;SDS011;51113;53.646;-113.674;2022-08-01T15:16:08;13.93;;;7.80;;
64686;SDS011;51113;53.646;-113.674;2022-08-01T15:18:37;12.85;;;7.72;;
64686;SDS011;51113;53.646;-113.674;2022-08-01T15:21:06;11.82;;;7.80;;
64686;SDS011;51113;53.646;-113.674;2022-08-01T15:23:46;16.25;;;7.63;;
64686;SDS011;51113;53.646;-113.674;2022-08-01T15:26:14;11.10;;;7.80;;
64686;SDS011;51113;53.646;-113.674;2022-08-01T15:28:43;10.40;;;7.53;;
64686;SDS011;51113;53.646;-113.674;2022-08-01T15:31:11;15.32;;;7.72;;
64686;SDS011;51113;53.646;-113.674;2022-08-01T15:33:40;11.98;;;8.13;;